sensor_id;sensor_type;location;lat;lon;timestamp;P1;durP1;ratioP1;P2;durP2;ratioP2
41259;SDS011;26993;48.958;9.330;2022-09-01T00:00:12;12.23;;;8.52;;
41259;SDS011;26993;48.958;9.330;2022-09-01T00:03:02;9.15;;;7.55;;
41259;SDS011;26993;48.958;9.330;2022-09-01T00:05:50;10.52;;;8.57;;
41259;SDS011;26993;48.958;9.330;2022-09-01T00:08:40;10.65;;;8.48;;
41259;SDS011;26993;48.958;9.330;2022-09-01T00:11:27;10.90;;;7.72;;
41259;SDS011;26993;48.958;9.330;2022-09-01T00:14:15;12.30;;;8.27;;
41259;SDS011;26993;48.958;9.330;2022-09-01T00:17:03;9.52;;;8.23;;
41259;SDS011;26993;48.958;9.330;2022-09-01T00:19:52;10.35;;;8.32;;
41259;SDS011;26993;48.958;9.330;2022-09-01T00:22:38;9.40;;;8.05;;
41259;SDS011;26993;48.958;9.330;2022-09-01T00:25:27;10.40;;;8.20;;
41259;SDS011;26993;48.958;9.330;2022-09-01T00:28:14;10.50;;;8.10;;
41259;SDS011;26993;48.958;9.330;2022-09-01T00:31:01;9.88;;;8.25;;
41259;SDS011;26993;48.958;9.330;2022-09-01T00:33:50;12.00;;;9.15;;
41259;SDS011;26993;48.958;9.330;2022-09-01T00:36:37;10.57;;;8.95;;
41259;SDS011;26993;48.958;9.330;2022-09-01T00:39:24;11.98;;;9.25;;
41259;SDS011;26993;48.958;9.330;2022-09-01T00:42:12;10.77;;;8.70;;
41259;SDS011;26993;48.958;9.330;2022-09-01T00:44:58;10.57;;;8.75;;
41259;SDS011;26993;48.958;9.330;2022-09-01T00:47:45;9.75;;;8.52;;
41259;SDS011;26993;48.958;9.330;2022-09-01T00:50:32;11.75;;;8.48;;
41259;SDS011;26993;48.958;9.330;2022-09-01T00:53:19;11.20;;;8.82;;
41259;SDS011;26993;48.958;9.330;2022-09-01T00:56:06;12.57;;;9.60;;
41259;SDS011;26993;48.958;9.330;2022-09-01T00:58:54;12.30;;;9.02;;
41259;SDS011;26993;48.958;9.330;2022-09-01T01:01:42;11.75;;;9.18;;
41259;SDS011;26993;48.958;9.330;2022-09-01T01:04:28;12.20;;;9.15;;
41259;SDS011;26993;48.958;9.330;2022-09-01T01:07:16;13.80;;;10.02;;
41259;SDS011;26993;48.958;9.330;2022-09-01T01:10:03;11.35;;;10.07;;
41259;SDS011;26993;48.958;9.330;2022-09-01T01:12:51;12.70;;;10.10;;
41259;SDS011;26993;48.958;9.330;2022-09-01T01:15:39;15.00;;;11.07;;
41259;SDS011;26993;48.958;9.330;2022-09-01T01:18:28;12.18;;;10.55;;
41259;SDS011;26993;48.958;9.330;2022-09-01T01:21:17;17.63;;;11.25;;
41259;SDS011;26993;48.958;9.330;2022-09-01T01:24:24;12.23;;;10.63;;
41259;SDS011;26993;48.958;9.330;2022-09-01T01:27:12;16.73;;;11.02;;
41259;SDS011;26993;48.958;9.330;2022-09-01T01:30:02;11.67;;;9.87;;
41259;SDS011;26993;48.958;9.330;2022-09-01T01:32:51;14.07;;;10.85;;
41259;SDS011;26993;48.958;9.330;2022-09-01T01:35:41;14.80;;;11.07;;
41259;SDS011;26993;48.958;9.330;2022-09-01T01:38:29;13.83;;;11.57;;
41259;SDS011;26993;48.958;9.330;2022-09-01T01:41:17;18.60;;;11.90;;
41259;SDS011;26993;48.958;9.330;2022-09-01T01:44:06;16.43;;;11.90;;
41259;SDS011;26993;48.958;9.330;2022-09-01T01:46:54;17.27;;;12.73;;
41259;SDS011;26993;48.958;9.330;2022-09-01T01:49:41;19.38;;;13.55;;
41259;SDS011;26993;48.958;9.330;2022-09-01T01:52:28;14.57;;;12.57;;
41259;SDS011;26993;48.958;9.330;2022-09-01T01:55:16;18.63;;;14.40;;
41259;SDS011;26993;48.958;9.330;2022-09-01T01:58:04;16.93;;;14.07;;
41259;SDS011;26993;48.958;9.330;2022-09-01T02:00:56;17.77;;;13.80;;
41259;SDS011;26993;48.958;9.330;2022-09-01T02:03:42;19.37;;;14.80;;
41259;SDS011;26993;48.958;9.330;2022-09-01T02:06:31;20.00;;;15.10;;
41259;SDS011;26993;48.958;9.330;2022-09-01T02:09:19;20.47;;;14.93;;
41259;SDS011;26993;48.958;9.330;2022-09-01T02:12:07;19.93;;;15.63;;
41259;SDS011;26993;48.958;9.330;2022-09-01T02:14:55;21.63;;;14.90;;
41259;SDS011;26993;48.958;9.330;2022-09-01T02:17:44;22.50;;;16.20;;
41259;SDS011;26993;48.958;9.330;2022-09-01T02:20:33;20.63;;;16.27;;
41259;SDS011;26993;48.958;9.330;2022-09-01T02:23:20;23.27;;;17.10;;
41259;SDS011;26993;48.958;9.330;2022-09-01T02:26:09;20.77;;;16.47;;
41259;SDS011;26993;48.958;9.330;2022-09-01T02:28:56;22.90;;;17.58;;
41259;SDS011;26993;48.958;9.330;2022-09-01T02:31:51;22.70;;;18.03;;
41259;SDS011;26993;48.958;9.330;2022-09-01T02:34:38;23.50;;;16.80;;
41259;SDS011;26993;48.958;9.330;2022-09-01T02:37:25;22.00;;;17.27;;
41259;SDS011;26993;48.958;9.330;2022-09-01T02:40:12;23.97;;;17.87;;
41259;SDS011;26993;48.958;9.330;2022-09-01T02:43:00;23.37;;;17.90;;
41259;SDS011;26993;48.958;9.330;2022-09-01T02:45:47;22.80;;;18.60;;
41259;SDS011;26993;48.958;9.330;2022-09-01T02:48:40;21.90;;;17.67;;
41259;SDS011;26993;48.958;9.330;2022-09-01T02:51:30;22.43;;;18.40;;
41259;SDS011;26993;48.958;9.330;2022-09-01T02:54:17;24.80;;;18.83;;
41259;SDS011;26993;48.958;9.330;2022-09-01T02:57:06;22.87;;;18.43;;
41259;SDS011;26993;48.958;9.330;2022-09-01T02:59:53;24.87;;;17.63;;
41259;SDS011;26993;48.958;9.330;2022-09-01T03:02:43;24.83;;;17.97;;
41259;SDS011;26993;48.958;9.330;2022-09-01T03:05:31;22.10;;;17.33;;
41259;SDS011;26993;48.958;9.330;2022-09-01T03:08:23;22.80;;;18.53;;
41259;SDS011;26993;48.958;9.330;2022-09-01T03:11:11;23.60;;;17.90;;
41259;SDS011;26993;48.958;9.330;2022-09-01T03:13:59;24.63;;;18.47;;
41259;SDS011;26993;48.958;9.330;2022-09-01T03:16:46;25.63;;;19.43;;
41259;SDS011;26993;48.958;9.330;2022-09-01T03:19:33;24.73;;;18.97;;
41259;SDS011;26993;48.958;9.330;2022-09-01T03:22:25;23.93;;;18.23;;
41259;SDS011;26993;48.958;9.330;2022-09-01T03:25:13;25.87;;;18.67;;
41259;SDS011;26993;48.958;9.330;2022-09-01T03:28:01;22.70;;;17.60;;
41259;SDS011;26993;48.958;9.330;2022-09-01T03:30:49;26.20;;;20.03;;
41259;SDS011;26993;48.958;9.330;2022-09-01T03:33:37;24.00;;;19.43;;
41259;SDS011;26993;48.958;9.330;2022-09-01T03:36:25;23.73;;;19.13;;
41259;SDS011;26993;48.958;9.330;2022-09-01T03:39:15;25.43;;;19.10;;
41259;SDS011;26993;48.958;9.330;2022-09-01T03:42:02;22.47;;;18.67;;
41259;SDS011;26993;48.958;9.330;2022-09-01T03:44:49;25.40;;;19.13;;
41259;SDS011;26993;48.958;9.330;2022-09-01T03:47:37;26.07;;;20.80;;
41259;SDS011;26993;48.958;9.330;2022-09-01T03:50:24;29.63;;;21.47;;
41259;SDS011;26993;48.958;9.330;2022-09-01T03:53:13;30.13;;;21.13;;
41259;SDS011;26993;48.958;9.330;2022-09-01T03:56:03;28.57;;;21.10;;
41259;SDS011;26993;48.958;9.330;2022-09-01T03:58:50;29.13;;;22.37;;
41259;SDS011;26993;48.958;9.330;2022-09-01T04:01:37;28.03;;;22.30;;
41259;SDS011;26993;48.958;9.330;2022-09-01T04:04:27;33.07;;;23.13;;
41259;SDS011;26993;48.958;9.330;2022-09-01T04:07:16;32.13;;;22.67;;
41259;SDS011;26993;48.958;9.330;2022-09-01T04:10:03;38.70;;;23.93;;
41259;SDS011;26993;48.958;9.330;2022-09-01T04:12:56;33.10;;;23.23;;
41259;SDS011;26993;48.958;9.330;2022-09-01T04:15:43;33.13;;;24.10;;
41259;SDS011;26993;48.958;9.330;2022-09-01T04:18:30;34.43;;;23.27;;
41259;SDS011;26993;48.958;9.330;2022-09-01T04:21:16;31.27;;;23.57;;
41259;SDS011;26993;48.958;9.330;2022-09-01T04:24:04;40.20;;;24.00;;
41259;SDS011;26993;48.958;9.330;2022-09-01T04:26:53;35.93;;;24.33;;
41259;SDS011;26993;48.958;9.330;2022-09-01T04:29:44;37.23;;;25.33;;
41259;SDS011;26993;48.958;9.330;2022-09-01T04:32:31;39.63;;;24.77;;
41259;SDS011;26993;48.958;9.330;2022-09-01T04:35:19;40.50;;;24.17;;
41259;SDS011;26993;48.958;9.330;2022-09-01T04:38:16;44.87;;;25.70;;
41259;SDS011;26993;48.958;9.330;2022-09-01T04:41:03;39.40;;;25.10;;
41259;SDS011;26993;48.958;9.330;2022-09-01T04:43:52;44.03;;;24.93;;
41259;SDS011;26993;48.958;9.330;2022-09-01T04:46:42;41.93;;;25.97;;
41259;SDS011;26993;48.958;9.330;2022-09-01T04:49:30;41.30;;;25.13;;
41259;SDS011;26993;48.958;9.330;2022-09-01T04:52:17;38.50;;;25.50;;
41259;SDS011;26993;48.958;9.330;2022-09-01T04:55:04;40.37;;;25.90;;
41259;SDS011;26993;48.958;9.330;2022-09-01T04:57:52;44.17;;;26.23;;
41259;SDS011;26993;48.958;9.330;2022-09-01T05:00:41;40.97;;;26.37;;
41259;SDS011;26993;48.958;9.330;2022-09-01T05:03:30;36.57;;;24.07;;
41259;SDS011;26993;48.958;9.330;2022-09-01T05:06:18;38.70;;;25.47;;
41259;SDS011;26993;48.958;9.330;2022-09-01T05:09:05;37.37;;;24.87;;
41259;SDS011;26993;48.958;9.330;2022-09-01T05:11:54;40.30;;;24.30;;
41259;SDS011;26993;48.958;9.330;2022-09-01T05:14:42;34.47;;;23.47;;
41259;SDS011;26993;48.958;9.330;2022-09-01T05:17:32;38.90;;;25.23;;
41259;SDS011;26993;48.958;9.330;2022-09-01T05:20:24;39.63;;;24.87;;
41259;SDS011;26993;48.958;9.330;2022-09-01T05:23:14;41.10;;;25.97;;
41259;SDS011;26993;48.958;9.330;2022-09-01T05:26:03;42.27;;;26.53;;
41259;SDS011;26993;48.958;9.330;2022-09-01T05:28:59;40.90;;;25.80;;
41259;SDS011;26993;48.958;9.330;2022-09-01T05:31:47;42.00;;;25.93;;
41259;SDS011;26993;48.958;9.330;2022-09-01T05:34:34;43.17;;;26.93;;
41259;SDS011;26993;48.958;9.330;2022-09-01T05:37:24;42.47;;;24.80;;
41259;SDS011;26993;48.958;9.330;2022-09-01T05:40:13;38.57;;;25.87;;
41259;SDS011;26993;48.958;9.330;2022-09-01T05:43:00;38.27;;;26.93;;
41259;SDS011;26993;48.958;9.330;2022-09-01T05:45:46;36.50;;;24.77;;
41259;SDS011;26993;48.958;9.330;2022-09-01T05:48:33;37.60;;;24.97;;
41259;SDS011;26993;48.958;9.330;2022-09-01T05:51:24;36.10;;;25.90;;
41259;SDS011;26993;48.958;9.330;2022-09-01T05:54:14;38.15;;;24.42;;
41259;SDS011;26993;48.958;9.330;2022-09-01T05:57:01;39.17;;;24.77;;
41259;SDS011;26993;48.958;9.330;2022-09-01T05:59:48;36.47;;;24.10;;
41259;SDS011;26993;48.958;9.330;2022-09-01T06:02:37;34.72;;;25.15;;
41259;SDS011;26993;48.958;9.330;2022-09-01T06:05:24;36.20;;;24.02;;
41259;SDS011;26993;48.958;9.330;2022-09-01T06:08:11;36.03;;;24.85;;
41259;SDS011;26993;48.958;9.330;2022-09-01T06:11:00;34.67;;;23.88;;
41259;SDS011;26993;48.958;9.330;2022-09-01T06:13:47;33.35;;;23.15;;
41259;SDS011;26993;48.958;9.330;2022-09-01T06:16:36;31.50;;;22.35;;
41259;SDS011;26993;48.958;9.330;2022-09-01T06:19:23;33.50;;;24.55;;
41259;SDS011;26993;48.958;9.330;2022-09-01T06:22:10;34.40;;;23.98;;
41259;SDS011;26993;48.958;9.330;2022-09-01T06:24:57;32.28;;;23.25;;
41259;SDS011;26993;48.958;9.330;2022-09-01T06:27:45;33.70;;;23.52;;
41259;SDS011;26993;48.958;9.330;2022-09-01T06:30:32;36.22;;;23.58;;
41259;SDS011;26993;48.958;9.330;2022-09-01T06:33:20;31.35;;;22.40;;
41259;SDS011;26993;48.958;9.330;2022-09-01T06:36:09;33.17;;;23.38;;
41259;SDS011;26993;48.958;9.330;2022-09-01T06:38:55;35.42;;;23.88;;
41259;SDS011;26993;48.958;9.330;2022-09-01T06:41:44;29.65;;;21.77;;
41259;SDS011;26993;48.958;9.330;2022-09-01T06:44:34;26.42;;;20.38;;
41259;SDS011;26993;48.958;9.330;2022-09-01T06:47:20;32.13;;;21.30;;
41259;SDS011;26993;48.958;9.330;2022-09-01T06:50:08;29.48;;;20.65;;
41259;SDS011;26993;48.958;9.330;2022-09-01T06:52:56;24.77;;;17.90;;
41259;SDS011;26993;48.958;9.330;2022-09-01T06:55:54;23.27;;;17.80;;
41259;SDS011;26993;48.958;9.330;2022-09-01T06:58:42;23.75;;;17.65;;
41259;SDS011;26993;48.958;9.330;2022-09-01T07:01:32;22.52;;;17.60;;
41259;SDS011;26993;48.958;9.330;2022-09-01T07:04:19;22.27;;;16.75;;
41259;SDS011;26993;48.958;9.330;2022-09-01T07:07:07;19.98;;;15.70;;
41259;SDS011;26993;48.958;9.330;2022-09-01T07:09:54;20.73;;;16.52;;
41259;SDS011;26993;48.958;9.330;2022-09-01T07:12:41;21.98;;;17.13;;
41259;SDS011;26993;48.958;9.330;2022-09-01T07:15:30;21.10;;;16.77;;
41259;SDS011;26993;48.958;9.330;2022-09-01T07:18:19;19.77;;;14.60;;
41259;SDS011;26993;48.958;9.330;2022-09-01T07:21:09;17.15;;;13.77;;
41259;SDS011;26993;48.958;9.330;2022-09-01T07:23:56;19.92;;;15.70;;
41259;SDS011;26993;48.958;9.330;2022-09-01T07:26:46;21.52;;;15.27;;
41259;SDS011;26993;48.958;9.330;2022-09-01T07:29:33;16.77;;;12.98;;
41259;SDS011;26993;48.958;9.330;2022-09-01T07:32:20;14.15;;;11.85;;
41259;SDS011;26993;48.958;9.330;2022-09-01T07:35:09;15.57;;;12.70;;
41259;SDS011;26993;48.958;9.330;2022-09-01T07:37:56;16.60;;;12.85;;
41259;SDS011;26993;48.958;9.330;2022-09-01T07:40:43;16.33;;;12.75;;
41259;SDS011;26993;48.958;9.330;2022-09-01T07:43:30;15.00;;;11.77;;
41259;SDS011;26993;48.958;9.330;2022-09-01T07:46:18;14.57;;;10.95;;
41259;SDS011;26993;48.958;9.330;2022-09-01T07:49:07;12.85;;;10.55;;
41259;SDS011;26993;48.958;9.330;2022-09-01T07:51:56;12.38;;;10.95;;
41259;SDS011;26993;48.958;9.330;2022-09-01T07:54:43;14.05;;;9.95;;
41259;SDS011;26993;48.958;9.330;2022-09-01T07:57:30;14.25;;;9.88;;
41259;SDS011;26993;48.958;9.330;2022-09-01T08:00:16;12.05;;;9.35;;
41259;SDS011;26993;48.958;9.330;2022-09-01T08:03:06;12.13;;;10.05;;
41259;SDS011;26993;48.958;9.330;2022-09-01T08:05:52;13.73;;;10.57;;
41259;SDS011;26993;48.958;9.330;2022-09-01T08:08:45;12.55;;;10.63;;
41259;SDS011;26993;48.958;9.330;2022-09-01T08:11:32;13.32;;;10.25;;
41259;SDS011;26993;48.958;9.330;2022-09-01T08:14:19;12.18;;;9.65;;
41259;SDS011;26993;48.958;9.330;2022-09-01T08:17:06;10.10;;;8.32;;
41259;SDS011;26993;48.958;9.330;2022-09-01T08:19:53;7.97;;;7.18;;
41259;SDS011;26993;48.958;9.330;2022-09-01T08:22:40;9.63;;;7.13;;
41259;SDS011;26993;48.958;9.330;2022-09-01T08:25:28;8.18;;;6.00;;
41259;SDS011;26993;48.958;9.330;2022-09-01T08:28:15;7.78;;;6.03;;
41259;SDS011;26993;48.958;9.330;2022-09-01T08:31:04;7.47;;;6.25;;
41259;SDS011;26993;48.958;9.330;2022-09-01T08:33:52;7.10;;;6.40;;
41259;SDS011;26993;48.958;9.330;2022-09-01T08:36:39;7.50;;;6.13;;
41259;SDS011;26993;48.958;9.330;2022-09-01T08:39:26;7.22;;;6.47;;
41259;SDS011;26993;48.958;9.330;2022-09-01T08:42:15;7.53;;;6.20;;
41259;SDS011;26993;48.958;9.330;2022-09-01T08:45:11;10.15;;;6.85;;
41259;SDS011;26993;48.958;9.330;2022-09-01T08:48:06;7.20;;;6.50;;
41259;SDS011;26993;48.958;9.330;2022-09-01T08:51:02;7.82;;;6.60;;
41259;SDS011;26993;48.958;9.330;2022-09-01T08:53:55;7.50;;;6.22;;
41259;SDS011;26993;48.958;9.330;2022-09-01T08:56:46;7.88;;;7.07;;
41259;SDS011;26993;48.958;9.330;2022-09-01T08:59:38;6.82;;;6.13;;
41259;SDS011;26993;48.958;9.330;2022-09-01T09:02:28;6.40;;;5.80;;
41259;SDS011;26993;48.958;9.330;2022-09-01T09:05:28;6.50;;;5.82;;
41259;SDS011;26993;48.958;9.330;2022-09-01T09:08:23;5.85;;;5.25;;
41259;SDS011;26993;48.958;9.330;2022-09-01T09:11:25;6.78;;;5.05;;
41259;SDS011;26993;48.958;9.330;2022-09-01T09:14:27;5.88;;;5.25;;
41259;SDS011;26993;48.958;9.330;2022-09-01T09:17:40;6.35;;;5.03;;
41259;SDS011;26993;48.958;9.330;2022-09-01T09:20:32;8.95;;;5.82;;
41259;SDS011;26993;48.958;9.330;2022-09-01T09:23:20;5.82;;;5.20;;
41259;SDS011;26993;48.958;9.330;2022-09-01T09:26:13;6.40;;;4.95;;
41259;SDS011;26993;48.958;9.330;2022-09-01T09:29:03;5.00;;;4.50;;
41259;SDS011;26993;48.958;9.330;2022-09-01T09:32:00;9.13;;;5.18;;
41259;SDS011;26993;48.958;9.330;2022-09-01T09:34:50;5.53;;;5.03;;
41259;SDS011;26993;48.958;9.330;2022-09-01T09:37:37;9.13;;;6.10;;
41259;SDS011;26993;48.958;9.330;2022-09-01T09:40:24;7.45;;;5.72;;
41259;SDS011;26993;48.958;9.330;2022-09-01T09:43:11;6.50;;;5.90;;
41259;SDS011;26993;48.958;9.330;2022-09-01T09:46:20;9.15;;;5.43;;
41259;SDS011;26993;48.958;9.330;2022-09-01T09:49:12;5.93;;;5.32;;
41259;SDS011;26993;48.958;9.330;2022-09-01T09:52:14;8.48;;;5.95;;
41259;SDS011;26993;48.958;9.330;2022-09-01T09:55:04;9.10;;;5.78;;
41259;SDS011;26993;48.958;9.330;2022-09-01T09:58:08;8.32;;;6.28;;
41259;SDS011;26993;48.958;9.330;2022-09-01T10:01:02;4.88;;;4.35;;
41259;SDS011;26993;48.958;9.330;2022-09-01T10:03:51;5.00;;;4.55;;
41259;SDS011;26993;48.958;9.330;2022-09-01T10:06:42;7.80;;;4.82;;
41259;SDS011;26993;48.958;9.330;2022-09-01T10:09:34;5.60;;;4.90;;
41259;SDS011;26993;48.958;9.330;2022-09-01T10:12:22;5.47;;;4.47;;
41259;SDS011;26993;48.958;9.330;2022-09-01T10:15:21;4.90;;;4.40;;
41259;SDS011;26993;48.958;9.330;2022-09-01T10:18:11;4.43;;;4.03;;
41259;SDS011;26993;48.958;9.330;2022-09-01T10:21:02;5.53;;;4.65;;
41259;SDS011;26993;48.958;9.330;2022-09-01T10:23:55;4.97;;;4.50;;
41259;SDS011;26993;48.958;9.330;2022-09-01T10:26:42;5.13;;;4.68;;
41259;SDS011;26993;48.958;9.330;2022-09-01T10:29:33;6.72;;;4.32;;
41259;SDS011;26993;48.958;9.330;2022-09-01T10:32:25;4.88;;;4.47;;
41259;SDS011;26993;48.958;9.330;2022-09-01T10:35:18;6.68;;;4.95;;
41259;SDS011;26993;48.958;9.330;2022-09-01T10:38:09;6.40;;;5.60;;
41259;SDS011;26993;48.958;9.330;2022-09-01T10:41:06;6.60;;;5.82;;
41259;SDS011;26993;48.958;9.330;2022-09-01T10:43:53;6.93;;;6.22;;
41259;SDS011;26993;48.958;9.330;2022-09-01T10:46:43;6.68;;;5.97;;
41259;SDS011;26993;48.958;9.330;2022-09-01T10:53:04;5.95;;;5.40;;
41259;SDS011;26993;48.958;9.330;2022-09-01T10:55:59;5.05;;;4.55;;
41259;SDS011;26993;48.958;9.330;2022-09-01T10:58:52;5.60;;;5.00;;
41259;SDS011;26993;48.958;9.330;2022-09-01T11:02:02;5.55;;;5.05;;
41259;SDS011;26993;48.958;9.330;2022-09-01T11:05:13;5.72;;;5.22;;
41259;SDS011;26993;48.958;9.330;2022-09-01T11:11:27;5.72;;;5.07;;
41259;SDS011;26993;48.958;9.330;2022-09-01T11:14:18;5.35;;;4.85;;
41259;SDS011;26993;48.958;9.330;2022-09-01T11:17:10;5.00;;;4.07;;
41259;SDS011;26993;48.958;9.330;2022-09-01T11:20:01;5.43;;;4.90;;
41259;SDS011;26993;48.958;9.330;2022-09-01T11:22:58;5.07;;;4.60;;
41259;SDS011;26993;48.958;9.330;2022-09-01T11:25:47;6.70;;;5.30;;
41259;SDS011;26993;48.958;9.330;2022-09-01T11:28:39;5.60;;;5.05;;
41259;SDS011;26993;48.958;9.330;2022-09-01T11:31:29;5.60;;;4.80;;
41259;SDS011;26993;48.958;9.330;2022-09-01T11:34:18;5.80;;;5.13;;
41259;SDS011;26993;48.958;9.330;2022-09-01T11:37:11;6.43;;;4.90;;
41259;SDS011;26993;48.958;9.330;2022-09-01T11:40:02;10.00;;;4.97;;
41259;SDS011;26993;48.958;9.330;2022-09-01T11:42:51;6.13;;;3.83;;
41259;SDS011;26993;48.958;9.330;2022-09-01T11:45:42;4.15;;;3.38;;
41259;SDS011;26993;48.958;9.330;2022-09-01T11:48:39;4.78;;;4.32;;
41259;SDS011;26993;48.958;9.330;2022-09-01T11:51:43;4.90;;;4.50;;
41259;SDS011;26993;48.958;9.330;2022-09-01T11:54:37;7.15;;;4.80;;
41259;SDS011;26993;48.958;9.330;2022-09-01T11:57:27;6.93;;;4.97;;
41259;SDS011;26993;48.958;9.330;2022-09-01T12:00:16;5.68;;;5.18;;
41259;SDS011;26993;48.958;9.330;2022-09-01T12:03:18;5.78;;;5.15;;
41259;SDS011;26993;48.958;9.330;2022-09-01T12:06:08;7.15;;;4.50;;
41259;SDS011;26993;48.958;9.330;2022-09-01T12:08:57;5.82;;;5.13;;
41259;SDS011;26993;48.958;9.330;2022-09-01T12:11:48;5.20;;;4.68;;
41259;SDS011;26993;48.958;9.330;2022-09-01T12:14:35;5.20;;;4.68;;
41259;SDS011;26993;48.958;9.330;2022-09-01T12:17:22;5.85;;;5.07;;
41259;SDS011;26993;48.958;9.330;2022-09-01T12:20:18;6.85;;;5.00;;
41259;SDS011;26993;48.958;9.330;2022-09-01T12:23:17;5.43;;;4.93;;
41259;SDS011;26993;48.958;9.330;2022-09-01T12:26:10;5.63;;;5.13;;
41259;SDS011;26993;48.958;9.330;2022-09-01T12:29:00;5.78;;;5.07;;
41259;SDS011;26993;48.958;9.330;2022-09-01T12:31:48;5.70;;;5.13;;
41259;SDS011;26993;48.958;9.330;2022-09-01T12:34:37;6.25;;;5.65;;
41259;SDS011;26993;48.958;9.330;2022-09-01T12:37:26;6.43;;;5.18;;
41259;SDS011;26993;48.958;9.330;2022-09-01T12:40:22;5.32;;;4.82;;
41259;SDS011;26993;48.958;9.330;2022-09-01T12:43:21;5.95;;;5.32;;
41259;SDS011;26993;48.958;9.330;2022-09-01T12:46:13;5.88;;;5.38;;
41259;SDS011;26993;48.958;9.330;2022-09-01T12:49:21;5.93;;;5.38;;
41259;SDS011;26993;48.958;9.330;2022-09-01T12:52:11;5.47;;;4.95;;
41259;SDS011;26993;48.958;9.330;2022-09-01T12:55:13;5.38;;;4.93;;
41259;SDS011;26993;48.958;9.330;2022-09-01T12:58:04;5.45;;;4.95;;
41259;SDS011;26993;48.958;9.330;2022-09-01T13:00:55;4.85;;;4.35;;
41259;SDS011;26993;48.958;9.330;2022-09-01T13:07:12;5.70;;;5.20;;
41259;SDS011;26993;48.958;9.330;2022-09-01T13:09:59;6.30;;;5.80;;
41259;SDS011;26993;48.958;9.330;2022-09-01T13:12:45;7.20;;;5.78;;
41259;SDS011;26993;48.958;9.330;2022-09-01T13:15:34;6.72;;;6.13;;
41259;SDS011;26993;48.958;9.330;2022-09-01T13:18:23;6.20;;;5.60;;
41259;SDS011;26993;48.958;9.330;2022-09-01T13:21:11;6.78;;;6.10;;
41259;SDS011;26993;48.958;9.330;2022-09-01T13:23:58;5.43;;;4.97;;
41259;SDS011;26993;48.958;9.330;2022-09-01T13:26:45;5.07;;;4.57;;
41259;SDS011;26993;48.958;9.330;2022-09-01T13:29:39;4.88;;;4.47;;
41259;SDS011;26993;48.958;9.330;2022-09-01T13:32:28;4.75;;;3.92;;
41259;SDS011;26993;48.958;9.330;2022-09-01T13:35:16;5.05;;;4.60;;
41259;SDS011;26993;48.958;9.330;2022-09-01T13:38:04;4.60;;;4.20;;
41259;SDS011;26993;48.958;9.330;2022-09-01T13:40:51;4.50;;;4.10;;
41259;SDS011;26993;48.958;9.330;2022-09-01T13:43:38;4.85;;;4.35;;
41259;SDS011;26993;48.958;9.330;2022-09-01T13:46:25;4.90;;;4.13;;
41259;SDS011;26993;48.958;9.330;2022-09-01T13:49:13;4.50;;;3.72;;
41259;SDS011;26993;48.958;9.330;2022-09-01T13:52:00;4.35;;;3.95;;
41259;SDS011;26993;48.958;9.330;2022-09-01T13:54:47;5.00;;;4.18;;
41259;SDS011;26993;48.958;9.330;2022-09-01T13:57:33;4.80;;;4.40;;
41259;SDS011;26993;48.958;9.330;2022-09-01T14:00:21;10.00;;;4.63;;
41259;SDS011;26993;48.958;9.330;2022-09-01T14:03:11;5.03;;;4.53;;
41259;SDS011;26993;48.958;9.330;2022-09-01T14:06:00;5.15;;;4.45;;
41259;SDS011;26993;48.958;9.330;2022-09-01T14:08:47;6.15;;;4.65;;
41259;SDS011;26993;48.958;9.330;2022-09-01T14:11:34;5.00;;;4.50;;
41259;SDS011;26993;48.958;9.330;2022-09-01T14:14:20;5.15;;;4.38;;
41259;SDS011;26993;48.958;9.330;2022-09-01T14:17:08;4.60;;;4.20;;
41259;SDS011;26993;48.958;9.330;2022-09-01T14:19:54;4.47;;;3.95;;
41259;SDS011;26993;48.958;9.330;2022-09-01T14:22:42;5.75;;;4.25;;
41259;SDS011;26993;48.958;9.330;2022-09-01T14:25:30;4.65;;;3.90;;
41259;SDS011;26993;48.958;9.330;2022-09-01T14:28:18;4.15;;;3.75;;
41259;SDS011;26993;48.958;9.330;2022-09-01T14:31:06;4.72;;;4.30;;
41259;SDS011;26993;48.958;9.330;2022-09-01T14:33:54;4.25;;;3.85;;
41259;SDS011;26993;48.958;9.330;2022-09-01T14:36:41;4.95;;;4.35;;
41259;SDS011;26993;48.958;9.330;2022-09-01T14:39:29;4.13;;;3.83;;
41259;SDS011;26993;48.958;9.330;2022-09-01T14:42:16;9.73;;;4.13;;
41259;SDS011;26993;48.958;9.330;2022-09-01T14:45:04;4.45;;;4.05;;
41259;SDS011;26993;48.958;9.330;2022-09-01T14:47:53;5.63;;;3.90;;
41259;SDS011;26993;48.958;9.330;2022-09-01T14:50:41;4.43;;;4.03;;
41259;SDS011;26993;48.958;9.330;2022-09-01T14:53:30;4.80;;;4.40;;
41259;SDS011;26993;48.958;9.330;2022-09-01T14:56:18;8.35;;;4.57;;
41259;SDS011;26993;48.958;9.330;2022-09-01T14:59:06;5.38;;;4.20;;
41259;SDS011;26993;48.958;9.330;2022-09-01T15:01:55;4.30;;;3.88;;
41259;SDS011;26993;48.958;9.330;2022-09-01T15:04:41;5.20;;;4.00;;
41259;SDS011;26993;48.958;9.330;2022-09-01T15:07:28;4.80;;;3.90;;
41259;SDS011;26993;48.958;9.330;2022-09-01T15:10:18;6.30;;;4.15;;
41259;SDS011;26993;48.958;9.330;2022-09-01T15:13:07;5.10;;;4.60;;
41259;SDS011;26993;48.958;9.330;2022-09-01T15:15:54;4.68;;;4.18;;
41259;SDS011;26993;48.958;9.330;2022-09-01T15:18:41;4.80;;;4.22;;
41259;SDS011;26993;48.958;9.330;2022-09-01T15:21:28;5.18;;;3.97;;
41259;SDS011;26993;48.958;9.330;2022-09-01T15:24:17;6.28;;;4.72;;
41259;SDS011;26993;48.958;9.330;2022-09-01T15:27:05;5.22;;;4.20;;
41259;SDS011;26993;48.958;9.330;2022-09-01T15:29:53;4.90;;;4.40;;
41259;SDS011;26993;48.958;9.330;2022-09-01T15:32:40;4.80;;;4.30;;
41259;SDS011;26993;48.958;9.330;2022-09-01T15:35:27;4.82;;;4.30;;
41259;SDS011;26993;48.958;9.330;2022-09-01T15:38:16;4.75;;;4.35;;
41259;SDS011;26993;48.958;9.330;2022-09-01T15:41:03;5.30;;;4.78;;
41259;SDS011;26993;48.958;9.330;2022-09-01T15:43:50;5.05;;;4.55;;
41259;SDS011;26993;48.958;9.330;2022-09-01T15:46:39;5.55;;;4.97;;
41259;SDS011;26993;48.958;9.330;2022-09-01T15:49:27;7.97;;;5.13;;
41259;SDS011;26993;48.958;9.330;2022-09-01T15:52:13;8.05;;;5.32;;
41259;SDS011;26993;48.958;9.330;2022-09-01T15:55:01;6.30;;;5.13;;
41259;SDS011;26993;48.958;9.330;2022-09-01T15:57:48;8.75;;;5.13;;
41259;SDS011;26993;48.958;9.330;2022-09-01T16:00:36;5.63;;;5.13;;
41259;SDS011;26993;48.958;9.330;2022-09-01T16:03:25;5.57;;;5.07;;
41259;SDS011;26993;48.958;9.330;2022-09-01T16:06:13;5.80;;;5.20;;
41259;SDS011;26993;48.958;9.330;2022-09-01T16:09:00;5.55;;;5.05;;
41259;SDS011;26993;48.958;9.330;2022-09-01T16:11:47;5.88;;;5.38;;
41259;SDS011;26993;48.958;9.330;2022-09-01T16:14:34;5.90;;;5.30;;
41259;SDS011;26993;48.958;9.330;2022-09-01T16:17:21;5.63;;;5.13;;
41259;SDS011;26993;48.958;9.330;2022-09-01T16:20:19;5.70;;;5.13;;
41259;SDS011;26993;48.958;9.330;2022-09-01T16:23:11;5.68;;;4.82;;
41259;SDS011;26993;48.958;9.330;2022-09-01T16:26:00;5.30;;;4.80;;
41259;SDS011;26993;48.958;9.330;2022-09-01T16:28:48;4.63;;;4.22;;
41259;SDS011;26993;48.958;9.330;2022-09-01T16:31:36;5.97;;;4.60;;
41259;SDS011;26993;48.958;9.330;2022-09-01T16:34:26;4.88;;;4.47;;
41259;SDS011;26993;48.958;9.330;2022-09-01T16:37:20;5.03;;;4.53;;
41259;SDS011;26993;48.958;9.330;2022-09-01T16:40:20;5.40;;;4.75;;
41259;SDS011;26993;48.958;9.330;2022-09-01T16:43:19;7.15;;;4.60;;
41259;SDS011;26993;48.958;9.330;2022-09-01T16:46:12;4.75;;;4.35;;
41259;SDS011;26993;48.958;9.330;2022-09-01T16:49:10;4.82;;;4.00;;
41259;SDS011;26993;48.958;9.330;2022-09-01T16:52:06;5.47;;;4.40;;
41259;SDS011;26993;48.958;9.330;2022-09-01T16:55:03;4.40;;;4.00;;
41259;SDS011;26993;48.958;9.330;2022-09-01T16:58:05;5.35;;;4.35;;